Weather at Prices Airport

Public forecast

Using degrees Fahrenheit for public forecast. Weather courtesy of forecast.io.

Closest aviation weather report (METAR) to Prices Airport

Closest report is Bishop International Airport, 9.5 nm (17.7 km) N.

2022/12/03 15:33 (retrieved 20 minutes ago)

KFNT 031533Z 29021G29KT 10SM OVC031 03/M01 A3003

Closest aviation forecast (TAF) to Prices Airport

Closest forecast is Bishop International Airport, 9.5 nm (17.7 km) N.

2022/12/03 15:06 Ammendment (retrieved 47 minutes ago)

TAF AMD KFNT 031504Z 0315/0412 28018G30KT P6SM VCSH OVC025 FM031800 28014G25KT P6SM OVC035 FM040000 28010KT P6SM BKN040 FM040400 26007KT P6SM SKC